This is the latest recevied weather packets stored in our database for station/object DL2AKT-13. If no packets are shown the sender has not sent any weather packets the latest 10 day(s).
| Time | Temp. | Humidity | Pressure | Rain* | Wind** | Luminosity | Snow |
|---|---|---|---|---|---|---|---|
| 1778316321 | 10° C | 85% | 1020.3 hPa | 0 mm | - | - | - |
| 1778312757 | 8.89° C | 88% | 1020.3 hPa | 0 mm | - | - | - |
| 1778310953 | 8.33° C | 91% | 1020.3 hPa | 0 mm | - | - | - |
| 1778304641 | 7.22° C | 93% | 1020.2 hPa | 0 mm | - | - | - |
| 1778302844 | 6.67° C | 93% | 1020 hPa | 0 mm | - | - | - |
| 1778301938 | 6.11° C | 92% | 1020 hPa | 0 mm | - | - | - |
| 1778301037 | 6.67° C | 92% | 1019.9 hPa | 0 mm | - | - | - |
| 1778299240 | 6.67° C | 92% | 1019.8 hPa | 0 mm | - | - | - |
| 1778292033 | 6.67° C | 91% | 1019.9 hPa | 0 mm | - | - | - |
| 1778289322 | 7.78° C | 91% | 1019.9 hPa | 0 mm | - | - | - |
| 1778275806 | 7.78° C | 91% | 1020 hPa | 0 mm | - | - | - |
| 1778273107 | 8.33° C | 91% | 1019.9 hPa | 0.25 mm | - | - | - |
| 1778271304 | 8.33° C | 90% | 1020 hPa | 0 mm | - | - | - |
| 1778270403 | 8.33° C | 90% | 1020 hPa | 0 mm | - | - | - |
| 1778268667 | 8.33° C | 90% | 1019.8 hPa | 0 mm | - | - | - |
| 1778267760 | 8.33° C | 89% | 1019.6 hPa | 0 mm | - | - | - |
| 1778265063 | 8.89° C | 88% | 1019.4 hPa | 0 mm | - | - | - |
| 1778263258 | 8.89° C | 87% | 1019.3 hPa | 0 mm | - | - | - |
| 1778262371 | 8.89° C | 87% | 1019.2 hPa | 0 mm | - | - | - |
| 1778258754 | 9.44° C | 87% | 1019.1 hPa | 0 mm | - | - | - |
| 1778256053 | 9.44° C | 86% | 1019.1 hPa | 0 mm | - | - | - |
| 1778252450 | 9.44° C | 84% | 1019.2 hPa | 0 mm | - | - | - |
| 1778241639 | 11.11° C | 80% | 1019.3 hPa | 0 mm | - | - | - |
| 1778235324 | 9.44° C | 85% | 1019.6 hPa | 0 mm | - | - | - |
| 1778234424 | 9.44° C | 84% | 1019.6 hPa | 0 mm | - | - | - |
* Rain latest hour (hover to see other rain measurements)
** Current wind speed in m/s (hover to see current wind gust speed)